createdAt,value
2022-12-25T00:01:34.661Z,9.18
2022-12-25T00:04:03.827Z,9.07
2022-12-25T00:06:31.635Z,9.01
2022-12-25T00:08:59.361Z,9.58
2022-12-25T00:11:27.123Z,9.41
2022-12-25T00:13:54.930Z,9.45
2022-12-25T00:16:25.040Z,9.51
2022-12-25T00:18:53.285Z,9.31
2022-12-25T00:21:22.669Z,9.58
2022-12-25T00:23:55.452Z,9.78
2022-12-25T00:26:23.683Z,9.68
2022-12-25T00:28:54.185Z,9.83
2022-12-25T00:31:22.822Z,9.89
2022-12-25T00:33:51.983Z,9.81
2022-12-25T00:36:23.385Z,10.13
2022-12-25T00:38:51.255Z,10.20
2022-12-25T00:41:42.015Z,10.21
2022-12-25T00:44:12.501Z,9.89
2022-12-25T00:46:40.878Z,10.13
2022-12-25T00:49:08.709Z,10.42
2022-12-25T00:51:38.131Z,10.28
2022-12-25T00:54:06.010Z,10.43
2022-12-25T00:56:33.801Z,9.77
2022-12-25T00:59:01.776Z,9.83
2022-12-25T01:01:29.620Z,9.94
2022-12-25T01:03:57.547Z,10.09
2022-12-25T01:06:25.297Z,10.24
2022-12-25T01:09:11.975Z,10.24
2022-12-25T01:11:39.751Z,10.41
2022-12-25T01:14:07.665Z,10.60
2022-12-25T01:16:36.079Z,10.43
2022-12-25T01:19:04.290Z,10.43
2022-12-25T01:21:32.245Z,10.46
2022-12-25T01:24:01.360Z,10.43
2022-12-25T01:26:29.545Z,10.55
2022-12-25T01:28:57.354Z,10.70
2022-12-25T01:31:25.609Z,10.64
2022-12-25T01:33:53.423Z,10.67
2022-12-25T01:36:23.360Z,10.41
2022-12-25T01:38:52.728Z,10.80
2022-12-25T01:41:23.924Z,11.13
2022-12-25T01:44:04.057Z,11.00
2022-12-25T01:46:33.189Z,11.07
2022-12-25T01:49:05.445Z,10.85
2022-12-25T01:51:36.756Z,10.83
2022-12-25T01:54:08.391Z,10.91
2022-12-25T01:56:39.854Z,10.96
2022-12-25T01:59:09.240Z,10.80
2022-12-25T02:01:37.257Z,10.89
2022-12-25T02:04:10.237Z,10.82
2022-12-25T02:06:37.975Z,10.98
2022-12-25T02:09:05.734Z,10.75
2022-12-25T02:11:51.003Z,10.56
2022-12-25T02:14:20.238Z,10.85
2022-12-25T02:16:58.265Z,10.49
2022-12-25T02:19:38.382Z,10.80
2022-12-25T02:22:17.315Z,10.93
2022-12-25T02:24:59.503Z,10.68
2022-12-25T02:28:02.305Z,10.72
2022-12-25T02:30:36.679Z,10.58
2022-12-25T02:33:27.827Z,10.57
2022-12-25T02:35:57.950Z,10.03
2022-12-25T02:38:32.711Z,9.95
2022-12-25T02:41:06.419Z,10.18
2022-12-25T02:43:57.169Z,10.38
2022-12-25T02:46:44.545Z,10.33
2022-12-25T02:49:34.470Z,9.95
2022-12-25T02:52:23.810Z,10.00
2022-12-25T02:55:13.187Z,10.21
2022-12-25T02:58:03.662Z,10.36
2022-12-25T03:00:53.733Z,9.88
2022-12-25T03:03:43.546Z,9.79
2022-12-25T03:06:30.066Z,9.73
2022-12-25T03:09:21.715Z,9.58
2022-12-25T03:11:54.460Z,9.51
2022-12-25T03:14:39.603Z,9.49
2022-12-25T03:17:08.776Z,9.38
2022-12-25T03:19:54.539Z,8.89
2022-12-25T03:22:43.713Z,9.15
2022-12-25T03:25:29.471Z,8.99
2022-12-25T03:27:59.004Z,8.91
2022-12-25T03:30:54.025Z,8.97
2022-12-25T03:33:46.171Z,9.19
2022-12-25T03:36:20.913Z,9.01
2022-12-25T03:39:15.737Z,8.91
2022-12-25T03:42:07.708Z,8.76
2022-12-25T03:45:01.176Z,8.59
2022-12-25T03:47:51.003Z,9.04
2022-12-25T03:50:42.408Z,8.95
2022-12-25T03:53:32.341Z,8.92
2022-12-25T03:56:17.957Z,9.04
2022-12-25T03:59:09.538Z,8.91
2022-12-25T04:01:54.993Z,8.93
2022-12-25T04:04:40.195Z,8.80
2022-12-25T04:07:26.678Z,8.73
2022-12-25T04:10:11.955Z,8.45
2022-12-25T04:13:05.857Z,8.65
2022-12-25T04:15:51.223Z,8.65
2022-12-25T04:18:36.329Z,8.76
2022-12-25T04:21:22.109Z,8.55
2022-12-25T04:24:08.773Z,8.46
2022-12-25T04:26:54.154Z,8.41
2022-12-25T04:29:39.616Z,8.04
2022-12-25T04:32:24.948Z,8.06
2022-12-25T04:35:10.288Z,7.77
2022-12-25T04:37:38.035Z,7.66
2022-12-25T04:40:09.245Z,7.23
2022-12-25T04:42:36.993Z,7.55
2022-12-25T04:45:05.215Z,7.45
2022-12-25T04:47:33.697Z,7.71
2022-12-25T04:50:01.487Z,7.53
2022-12-25T04:52:29.552Z,7.58
2022-12-25T04:54:57.291Z,7.13
2022-12-25T04:57:26.381Z,7.12
2022-12-25T04:59:54.151Z,6.68
2022-12-25T05:02:22.021Z,6.85
2022-12-25T05:04:50.098Z,6.57
2022-12-25T05:07:17.842Z,6.44
2022-12-25T05:09:45.608Z,7.40
2022-12-25T05:12:13.916Z,7.19
2022-12-25T05:14:43.017Z,7.24
2022-12-25T05:17:10.769Z,7.08
2022-12-25T05:19:38.503Z,6.93
2022-12-25T05:22:06.334Z,6.68
2022-12-25T05:24:34.240Z,7.08
2022-12-25T05:27:01.990Z,6.40
2022-12-25T05:29:29.691Z,6.58
2022-12-25T05:31:58.819Z,6.89
2022-12-25T05:34:26.563Z,6.34
2022-12-25T05:36:54.294Z,6.42
2022-12-25T05:39:22.070Z,6.26
2022-12-25T05:41:49.850Z,5.81
2022-12-25T05:44:17.904Z,5.97
2022-12-25T05:46:45.791Z,6.42
2022-12-25T05:49:14.999Z,6.18
2022-12-25T05:51:42.731Z,6.92
2022-12-25T05:54:10.498Z,6.95
2022-12-25T05:56:38.659Z,6.09
2022-12-25T05:59:06.583Z,6.55
2022-12-25T06:01:34.462Z,5.97
2022-12-25T06:04:07.017Z,5.59
2022-12-25T06:06:39.554Z,5.75
2022-12-25T06:09:07.347Z,5.71
2022-12-25T06:11:35.082Z,6.12
2022-12-25T06:14:02.839Z,5.65
2022-12-25T06:16:37.343Z,6.05
2022-12-25T06:19:05.953Z,5.89
2022-12-25T06:21:33.861Z,5.76
2022-12-25T06:24:03.235Z,6.25
2022-12-25T06:26:31.067Z,6.13
2022-12-25T06:28:58.806Z,6.83
2022-12-25T06:31:26.600Z,6.22
2022-12-25T06:33:54.575Z,5.95
2022-12-25T06:36:24.882Z,6.20
2022-12-25T06:38:53.452Z,6.44
2022-12-25T06:41:24.485Z,6.45
2022-12-25T06:43:53.982Z,6.25
2022-12-25T06:46:23.431Z,6.13
2022-12-25T06:48:51.579Z,5.76
2022-12-25T06:51:20.432Z,5.82
2022-12-25T06:53:48.418Z,5.89
2022-12-25T06:56:18.710Z,5.86
2022-12-25T06:58:50.301Z,5.74
2022-12-25T07:01:21.861Z,5.66
2022-12-25T07:03:52.480Z,5.55
2022-12-25T07:06:20.421Z,5.46
2022-12-25T07:08:48.632Z,5.25
2022-12-25T07:11:18.314Z,5.28
2022-12-25T07:13:47.602Z,5.11
2022-12-25T07:16:16.113Z,5.29
2022-12-25T07:18:44.249Z,5.52
2022-12-25T07:21:14.242Z,5.35
2022-12-25T07:23:42.781Z,5.21
2022-12-25T07:26:11.835Z,5.66
2022-12-25T07:28:39.960Z,5.66
2022-12-25T07:31:11.646Z,6.32
2022-12-25T07:33:39.835Z,5.44
2022-12-25T07:36:12.580Z,5.28
2022-12-25T07:38:42.314Z,5.08
2022-12-25T07:41:10.636Z,5.25
2022-12-25T07:43:38.635Z,5.22
2022-12-25T07:46:07.175Z,5.00
2022-12-25T07:48:36.831Z,4.90
2022-12-25T07:51:06.268Z,4.69
2022-12-25T07:53:34.619Z,4.78
2022-12-25T07:56:04.466Z,5.14
2022-12-25T07:58:32.762Z,5.55
2022-12-25T08:01:04.456Z,5.66
2022-12-25T08:03:33.007Z,5.61
2022-12-25T08:06:05.460Z,6.34
2022-12-25T08:08:33.494Z,5.52
2022-12-25T08:11:01.500Z,5.87
2022-12-25T08:13:32.008Z,5.80
2022-12-25T08:16:00.891Z,6.15
2022-12-25T08:18:30.167Z,5.35
2022-12-25T08:21:02.843Z,6.04
2022-12-25T08:23:31.984Z,5.91
2022-12-25T08:26:05.192Z,6.07
2022-12-25T08:28:35.191Z,5.62
2022-12-25T08:31:07.842Z,6.68
2022-12-25T08:33:36.337Z,6.57
2022-12-25T08:36:04.877Z,6.18
2022-12-25T08:38:33.987Z,6.01
2022-12-25T08:41:01.805Z,5.95
2022-12-25T08:43:29.758Z,6.27
2022-12-25T08:45:57.576Z,5.85
2022-12-25T08:48:25.379Z,6.07
2022-12-25T08:50:54.567Z,6.10
2022-12-25T08:53:23.116Z,5.91
2022-12-25T08:55:58.500Z,5.99
2022-12-25T08:58:26.782Z,6.47
2022-12-25T09:00:54.970Z,6.02
2022-12-25T09:03:22.867Z,6.11
2022-12-25T09:05:50.606Z,6.40
2022-12-25T09:08:18.481Z,6.06
2022-12-25T09:10:46.427Z,6.35
2022-12-25T09:13:15.524Z,6.32
2022-12-25T09:15:43.340Z,6.61
2022-12-25T09:18:11.103Z,6.20
2022-12-25T09:20:38.821Z,6.60
2022-12-25T09:23:13.248Z,6.35
2022-12-25T09:25:41.658Z,6.48
2022-12-25T09:28:09.400Z,6.77
2022-12-25T09:30:38.527Z,7.04
2022-12-25T09:33:07.035Z,7.21
2022-12-25T09:35:34.782Z,7.25
2022-12-25T09:38:02.499Z,7.19
2022-12-25T09:40:32.019Z,7.12
2022-12-25T09:43:00.949Z,7.06
2022-12-25T09:45:33.085Z,7.35
2022-12-25T09:48:02.184Z,6.83
2022-12-25T09:50:41.581Z,7.74
2022-12-25T09:53:16.337Z,7.34
2022-12-25T09:55:49.881Z,7.26
2022-12-25T09:58:17.610Z,7.28
2022-12-25T10:00:52.809Z,6.92
2022-12-25T10:03:36.214Z,7.25
2022-12-25T10:06:12.826Z,7.83
2022-12-25T10:08:57.787Z,7.24
2022-12-25T10:11:42.047Z,7.70
2022-12-25T10:14:23.095Z,7.69
2022-12-25T10:17:03.507Z,7.41
2022-12-25T10:19:42.428Z,7.52
2022-12-25T10:22:15.397Z,7.46
2022-12-25T10:24:49.134Z,7.47
2022-12-25T10:27:20.990Z,7.45
2022-12-25T10:29:53.778Z,7.11
2022-12-25T10:32:22.081Z,7.41
2022-12-25T10:34:51.751Z,7.41
2022-12-25T10:37:19.753Z,6.94
2022-12-25T10:39:47.484Z,6.72
2022-12-25T10:42:29.488Z,7.49
2022-12-25T10:44:58.975Z,7.69
2022-12-25T10:47:30.762Z,7.38
2022-12-25T10:50:02.460Z,7.40
2022-12-25T10:52:30.654Z,7.43
2022-12-25T10:54:58.428Z,7.61
2022-12-25T10:57:29.780Z,7.43
2022-12-25T10:59:58.310Z,7.16
2022-12-25T11:02:28.683Z,7.51
2022-12-25T11:05:03.620Z,7.47
2022-12-25T11:07:33.137Z,7.64
2022-12-25T11:10:05.834Z,7.53
2022-12-25T11:12:37.159Z,7.54
2022-12-25T11:15:08.658Z,7.45
2022-12-25T11:17:36.997Z,7.52
2022-12-25T11:20:20.140Z,7.55
2022-12-25T11:22:50.338Z,7.44
2022-12-25T11:25:23.734Z,7.62
2022-12-25T11:27:58.338Z,7.80
2022-12-25T11:30:26.242Z,7.58
2022-12-25T11:32:56.237Z,7.78
2022-12-25T11:35:31.836Z,7.72
2022-12-25T11:37:59.783Z,7.96
2022-12-25T11:40:30.676Z,7.63
2022-12-25T11:43:08.044Z,7.70
2022-12-25T11:45:39.550Z,7.70
2022-12-25T11:48:12.149Z,8.11
2022-12-25T11:50:43.886Z,8.05
2022-12-25T11:53:18.920Z,8.19
2022-12-25T11:55:54.759Z,8.03
2022-12-25T11:58:25.981Z,8.17
2022-12-25T12:00:57.419Z,8.09
2022-12-25T12:03:30.339Z,8.42
2022-12-25T12:06:03.772Z,7.95
2022-12-25T12:08:34.309Z,8.54
2022-12-25T12:11:19.539Z,8.58
2022-12-25T12:14:16.026Z,8.83
2022-12-25T12:16:43.946Z,8.56
2022-12-25T12:19:13.679Z,8.64
2022-12-25T12:21:44.183Z,8.62
2022-12-25T12:24:17.080Z,8.47
2022-12-25T12:26:47.210Z,8.48
2022-12-25T12:29:26.117Z,8.71
2022-12-25T12:31:57.176Z,8.67
2022-12-25T12:34:28.631Z,8.23
2022-12-25T12:37:02.988Z,8.57
2022-12-25T12:39:35.747Z,8.32
2022-12-25T12:42:03.810Z,8.40
2022-12-25T12:44:34.860Z,8.17
2022-12-25T12:47:02.649Z,8.00
2022-12-25T12:49:33.593Z,7.96
2022-12-25T12:52:08.078Z,8.36
2022-12-25T12:54:56.022Z,8.56
2022-12-25T12:57:26.884Z,8.49
2022-12-25T12:59:54.659Z,8.52
2022-12-25T13:02:48.138Z,8.46
2022-12-25T13:05:27.667Z,8.47
2022-12-25T13:08:11.433Z,8.53
2022-12-25T13:10:42.531Z,8.51
2022-12-25T13:13:18.562Z,8.34
2022-12-25T13:15:49.044Z,8.28
2022-12-25T13:18:17.209Z,8.41
2022-12-25T13:20:49.561Z,8.47
2022-12-25T13:23:27.077Z,8.55
2022-12-25T13:25:55.873Z,8.33
2022-12-25T13:28:31.667Z,8.51
2022-12-25T13:31:08.287Z,8.54
2022-12-25T13:33:36.162Z,8.50
2022-12-25T13:36:04.841Z,8.06
2022-12-25T13:38:34.029Z,8.86
2022-12-25T13:41:19.125Z,8.47
2022-12-25T13:43:48.710Z,8.64
2022-12-25T13:46:17.358Z,8.34
2022-12-25T13:48:45.147Z,8.78
2022-12-25T13:51:16.991Z,8.68
2022-12-25T13:53:46.129Z,9.14
2022-12-25T13:56:16.070Z,8.63
2022-12-25T13:58:46.524Z,8.49
2022-12-25T14:01:18.530Z,8.77
2022-12-25T14:03:48.210Z,9.11
2022-12-25T14:06:20.484Z,8.71
2022-12-25T14:08:50.798Z,8.54
2022-12-25T14:11:21.594Z,8.96
2022-12-25T14:13:51.989Z,8.52
2022-12-25T14:16:21.688Z,8.53
2022-12-25T14:18:53.652Z,8.78
2022-12-25T14:21:28.693Z,8.63
2022-12-25T14:23:58.081Z,9.11
2022-12-25T14:26:28.732Z,8.98
2022-12-25T14:29:03.489Z,8.98
2022-12-25T14:31:32.619Z,8.86
2022-12-25T14:34:02.453Z,8.78
2022-12-25T14:36:31.727Z,8.80
2022-12-25T14:39:02.381Z,9.06
2022-12-25T14:41:34.887Z,8.72
2022-12-25T14:44:06.714Z,8.79
2022-12-25T14:46:35.657Z,8.59
2022-12-25T14:49:05.595Z,8.63
2022-12-25T14:51:35.338Z,8.89
2022-12-25T14:54:06.390Z,8.75
2022-12-25T14:56:38.515Z,8.52
2022-12-25T14:59:07.699Z,8.86
2022-12-25T15:01:38.013Z,8.88
2022-12-25T15:04:12.548Z,9.10
2022-12-25T15:06:42.693Z,8.58
2022-12-25T15:09:19.032Z,8.86
2022-12-25T15:11:49.217Z,9.14
2022-12-25T15:14:16.929Z,9.19
2022-12-25T15:16:48.135Z,9.38
2022-12-25T15:19:25.253Z,9.10
2022-12-25T15:21:54.374Z,8.79
2022-12-25T15:24:23.475Z,8.94
2022-12-25T15:26:53.203Z,8.88
2022-12-25T15:29:38.453Z,8.83
2022-12-25T15:32:16.150Z,8.92
2022-12-25T15:34:46.186Z,8.88
2022-12-25T15:37:14.430Z,8.87
2022-12-25T15:39:43.604Z,8.64
2022-12-25T15:42:13.676Z,8.76
2022-12-25T15:44:41.557Z,8.78
2022-12-25T15:47:10.681Z,8.58
2022-12-25T15:49:39.238Z,8.24
2022-12-25T15:52:09.594Z,8.80
2022-12-25T15:54:37.310Z,8.30
2022-12-25T15:57:11.036Z,8.39
2022-12-25T15:59:38.773Z,8.31
2022-12-25T16:02:15.680Z,8.47
2022-12-25T16:04:43.628Z,8.12
2022-12-25T16:07:15.775Z,8.41
2022-12-25T16:09:43.665Z,8.24
2022-12-25T16:12:12.910Z,8.39
2022-12-25T16:14:40.620Z,8.09
2022-12-25T16:17:09.168Z,8.29
2022-12-25T16:19:36.872Z,8.26
2022-12-25T16:22:12.871Z,8.18
2022-12-25T16:24:40.620Z,8.15
2022-12-25T16:27:08.384Z,8.12
2022-12-25T16:29:37.497Z,7.98
2022-12-25T16:32:05.687Z,8.24
2022-12-25T16:34:33.410Z,8.16
2022-12-25T16:37:01.151Z,8.31
2022-12-25T16:39:29.055Z,8.14
2022-12-25T16:41:56.795Z,8.21
2022-12-25T16:44:24.906Z,8.28
2022-12-25T16:46:54.070Z,8.41
2022-12-25T16:49:21.848Z,8.17
2022-12-25T16:51:49.592Z,8.39
2022-12-25T16:54:17.335Z,8.56
2022-12-25T16:56:45.060Z,8.27
2022-12-25T16:59:13.041Z,8.39
2022-12-25T17:01:43.281Z,8.35
2022-12-25T17:04:12.838Z,8.63
2022-12-25T17:06:40.976Z,8.47
2022-12-25T17:09:08.710Z,8.50
2022-12-25T17:11:36.431Z,8.17
2022-12-25T17:14:06.694Z,8.57
2022-12-25T17:16:35.992Z,8.38
2022-12-25T17:19:05.530Z,8.68
2022-12-25T17:21:38.319Z,8.68
2022-12-25T17:24:07.871Z,8.47
2022-12-25T17:26:35.606Z,8.65
2022-12-25T17:29:03.661Z,8.75
2022-12-25T17:31:31.515Z,8.43
2022-12-25T17:34:01.371Z,8.38
2022-12-25T17:36:31.063Z,8.57
2022-12-25T17:39:01.754Z,8.51
2022-12-25T17:41:29.704Z,8.69
2022-12-25T17:43:57.541Z,8.94
2022-12-25T17:46:28.045Z,8.77
2022-12-25T17:48:57.740Z,8.76
2022-12-25T17:51:27.682Z,8.68
2022-12-25T17:53:57.229Z,9.14
2022-12-25T17:56:26.614Z,8.83
2022-12-25T17:58:56.959Z,8.59
2022-12-25T18:01:27.180Z,8.82
2022-12-25T18:03:55.862Z,8.71
2022-12-25T18:06:25.639Z,8.63
2022-12-25T18:08:55.410Z,8.61
2022-12-25T18:11:27.576Z,8.55
2022-12-25T18:13:58.224Z,9.11
2022-12-25T18:16:27.882Z,8.81
2022-12-25T18:18:55.597Z,8.44
2022-12-25T18:21:24.135Z,8.64
2022-12-25T18:23:52.198Z,8.58
2022-12-25T18:26:21.635Z,8.87
2022-12-25T18:28:50.092Z,8.72
2022-12-25T18:31:22.811Z,8.53
2022-12-25T18:33:51.477Z,8.74
2022-12-25T18:36:26.832Z,8.57
2022-12-25T18:38:56.431Z,8.56
2022-12-25T18:41:24.914Z,8.69
2022-12-25T18:43:55.536Z,9.01
2022-12-25T18:46:27.339Z,8.43
2022-12-25T18:48:56.003Z,8.82
2022-12-25T18:51:24.416Z,8.67
2022-12-25T18:53:52.316Z,8.71
2022-12-25T18:56:20.062Z,8.77
2022-12-25T18:58:48.677Z,8.91
2022-12-25T19:01:18.609Z,8.61
2022-12-25T19:03:49.245Z,8.57
2022-12-25T19:06:21.537Z,9.11
2022-12-25T19:08:49.705Z,8.94
2022-12-25T19:11:18.532Z,9.05
2022-12-25T19:13:46.681Z,8.78
2022-12-25T19:16:15.225Z,8.61
2022-12-25T19:18:43.688Z,8.48
2022-12-25T19:21:12.920Z,8.61
2022-12-25T19:23:41.880Z,8.86
2022-12-25T19:26:11.775Z,9.00
2022-12-25T19:28:42.743Z,8.60
2022-12-25T19:31:11.803Z,8.90
2022-12-25T19:33:40.913Z,8.72
2022-12-25T19:36:11.581Z,8.79
2022-12-25T19:38:40.771Z,8.97
2022-12-25T19:41:09.600Z,8.81
2022-12-25T19:43:39.074Z,8.73
2022-12-25T19:46:08.621Z,8.53
2022-12-25T19:48:36.453Z,8.82
2022-12-25T19:51:04.285Z,8.86
2022-12-25T19:53:32.448Z,8.84
2022-12-25T19:56:03.938Z,9.03
2022-12-25T19:58:31.727Z,9.04
2022-12-25T20:01:00.606Z,9.08
2022-12-25T20:03:28.608Z,9.04
2022-12-25T20:05:56.582Z,9.09
2022-12-25T20:08:24.367Z,9.07
2022-12-25T20:10:52.751Z,8.88
2022-12-25T20:13:22.106Z,8.76
2022-12-25T20:15:50.233Z,9.33
2022-12-25T20:18:18.841Z,9.16
2022-12-25T20:20:46.660Z,8.92
2022-12-25T20:23:14.429Z,9.09
2022-12-25T20:25:43.160Z,9.23
2022-12-25T20:28:11.065Z,9.16
2022-12-25T20:30:41.388Z,9.26
2022-12-25T20:33:10.073Z,9.03
2022-12-25T20:35:37.920Z,8.97
2022-12-25T20:38:05.653Z,9.11
2022-12-25T20:40:52.866Z,9.14
2022-12-25T20:43:21.070Z,9.13
2022-12-25T20:45:52.576Z,8.90
2022-12-25T20:48:20.374Z,9.22
2022-12-25T20:50:48.094Z,9.46
2022-12-25T20:53:16.333Z,9.21
2022-12-25T20:55:46.527Z,8.89
2022-12-25T20:58:14.566Z,9.48
2022-12-25T21:00:43.032Z,9.37
2022-12-25T21:03:12.696Z,9.23
2022-12-25T21:05:49.820Z,9.73
2022-12-25T21:08:18.029Z,8.95
2022-12-25T21:10:50.295Z,9.45
2022-12-25T21:13:18.295Z,8.93
2022-12-25T21:15:46.594Z,9.04
2022-12-25T21:18:16.106Z,9.66
2022-12-25T21:20:45.768Z,9.28
2022-12-25T21:23:13.532Z,9.11
2022-12-25T21:25:41.313Z,8.57
2022-12-25T21:28:09.145Z,9.12
2022-12-25T21:30:37.066Z,8.54
2022-12-25T21:33:22.561Z,8.99
2022-12-25T21:35:51.698Z,9.11
2022-12-25T21:38:19.417Z,8.86
2022-12-25T21:40:47.247Z,8.63
2022-12-25T21:43:15.692Z,8.56
2022-12-25T21:45:43.568Z,8.47
2022-12-25T21:48:11.396Z,9.10
2022-12-25T21:50:56.760Z,9.26
2022-12-25T21:53:25.863Z,8.78
2022-12-25T21:55:58.404Z,8.77
2022-12-25T21:58:26.225Z,8.75
2022-12-25T22:00:53.986Z,8.92
2022-12-25T22:03:22.028Z,8.87
2022-12-25T22:06:07.103Z,8.56
2022-12-25T22:08:36.160Z,8.24
2022-12-25T22:11:05.024Z,8.65
2022-12-25T22:13:50.418Z,8.72
2022-12-25T22:16:35.776Z,9.00
2022-12-25T22:19:20.979Z,8.59
2022-12-25T22:21:48.701Z,8.87
2022-12-25T22:24:17.790Z,8.65
2022-12-25T22:26:46.090Z,8.56
2022-12-25T22:29:13.798Z,8.91
2022-12-25T22:31:46.671Z,8.86
2022-12-25T22:34:16.336Z,8.62
2022-12-25T22:36:44.134Z,8.93
2022-12-25T22:39:11.939Z,8.46
2022-12-25T22:41:41.030Z,8.94
2022-12-25T22:44:17.798Z,8.90
2022-12-25T22:46:46.400Z,8.85
2022-12-25T22:49:15.482Z,9.30
2022-12-25T22:51:43.397Z,9.82
2022-12-25T22:54:13.072Z,9.64
2022-12-25T22:56:42.272Z,10.10
2022-12-25T22:59:10.695Z,10.17
2022-12-25T23:01:38.541Z,10.10
2022-12-25T23:04:07.293Z,10.25
2022-12-25T23:06:35.552Z,10.38
2022-12-25T23:09:04.428Z,9.95
2022-12-25T23:11:32.325Z,9.83
2022-12-25T23:14:33.296Z,9.87
2022-12-25T23:17:01.361Z,9.59
2022-12-25T23:19:46.790Z,9.84
2022-12-25T23:22:32.201Z,10.37
2022-12-25T23:25:17.980Z,10.36
2022-12-25T23:27:46.532Z,10.06
2022-12-25T23:30:16.366Z,10.24
2022-12-25T23:32:45.077Z,9.97
2022-12-25T23:35:14.338Z,9.69
2022-12-25T23:37:42.145Z,9.73
2022-12-25T23:40:11.088Z,9.88
2022-12-25T23:42:38.850Z,9.54
2022-12-25T23:45:07.464Z,9.71
2022-12-25T23:47:36.558Z,9.62
2022-12-25T23:50:04.500Z,9.89
2022-12-25T23:52:32.267Z,9.68
2022-12-25T23:55:00.009Z,9.42
2022-12-25T23:57:27.885Z,9.68
2022-12-25T23:59:55.631Z,9.79
